Time;durP1;ratioP1;P1;durP2;ratioP2;P2;SDS_P1;SDS_P2;PMS_P1;PMS_P2;Temp;Humidity;BMP_temperature;BMP_pressure;BME280_temperature;BME280_humidity;BME280_pressure;Samples;Min_cycle;Max_cycle;Signal;HPM_P1;HPM_P2
2022/03/27 00:00:51;;;;;;;11.52;7.38;;;;;;;4.98;100.00;103418.34;5007589;28;20033;-73
2022/03/27 00:03:16;;;;;;;10.75;7.97;;;;;;;4.97;100.00;103420.91;5006798;28;20492;-73
2022/03/27 00:05:42;;;;;;;14.40;7.72;;;;;;;4.98;100.00;103414.81;5006762;28;20063;-73
2022/03/27 00:08:08;;;;;;;10.10;7.32;;;;;;;4.99;100.00;103414.84;5006606;28;20473;-73
2022/03/27 00:11:23;;;;;;;10.80;7.43;;;;;;;4.97;100.00;103416.53;5006618;28;20142;-73
2022/03/27 00:13:19;;;;;;;12.13;7.82;;;;;;;4.98;100.00;103413.09;5006114;28;20575;-73
2022/03/27 00:15:44;;;;;;;11.75;7.93;;;;;;;4.99;100.00;103420.09;5005512;28;20053;-73
2022/03/27 00:18:10;;;;;;;10.75;7.45;;;;;;;4.96;100.00;103420.03;4987964;28;20118;-73
2022/03/27 00:20:35;;;;;;;11.25;7.72;;;;;;;4.94;100.00;103416.50;5006831;28;20033;-72
2022/03/27 00:23:01;;;;;;;14.18;8.02;;;;;;;4.92;100.00;103414.69;5006517;28;20037;-73
2022/03/27 00:25:26;;;;;;;14.27;7.90;;;;;;;4.88;100.00;103411.13;4988063;28;20034;-72
2022/03/27 00:27:52;;;;;;;11.98;7.82;;;;;;;4.84;100.00;103419.78;5003704;28;20021;-72
2022/03/27 00:30:17;;;;;;;14.27;8.20;;;;;;;4.82;100.00;103421.50;4992926;28;20029;-72
2022/03/27 00:32:43;;;;;;;14.23;8.55;;;;;;;4.79;100.00;103426.69;5007461;28;20033;-73
2022/03/27 00:35:08;;;;;;;13.02;8.60;;;;;;;4.78;100.00;103424.94;5005701;28;20396;-73
2022/03/27 00:37:35;;;;;;;13.85;8.98;;;;;;;4.78;100.00;103427.56;5006559;28;20341;-73
2022/03/27 00:40:00;;;;;;;13.93;8.30;;;;;;;4.79;100.00;103421.44;5005877;28;20667;-73
2022/03/27 00:42:26;;;;;;;11.23;8.15;;;;;;;4.82;100.00;103426.75;4971390;28;20072;-73
2022/03/27 00:44:51;;;;;;;12.38;8.25;;;;;;;4.82;100.00;103429.38;5006687;28;20101;-73
2022/03/27 00:47:17;;;;;;;14.18;9.10;;;;;;;4.84;100.00;103425.03;4976320;28;20061;-73
2022/03/27 00:49:42;;;;;;;12.57;8.98;;;;;;;4.86;100.00;103423.34;5006931;28;20381;-73
2022/03/27 00:52:08;;;;;;;18.80;9.18;;;;;;;4.88;100.00;103421.63;4985622;28;20025;-73
2022/03/27 00:54:33;;;;;;;17.50;9.70;;;;;;;4.91;100.00;103419.06;4987166;28;20041;-73
2022/03/27 00:56:59;;;;;;;17.17;9.77;;;;;;;4.93;100.00;103414.72;5005842;28;20041;-73
2022/03/27 00:59:24;;;;;;;15.00;9.18;;;;;;;4.96;100.00;103424.41;4972261;28;20044;-73
2022/03/27 01:01:50;;;;;;;15.60;9.07;;;;;;;4.97;100.00;103424.41;5003528;28;20041;-73
2022/03/27 01:04:15;;;;;;;15.60;8.85;;;;;;;4.98;100.00;103417.44;5007084;28;20045;-73
2022/03/27 01:06:43;;;;;;;17.15;10.10;;;;;;;4.97;100.00;103410.41;5006270;28;20072;-73
2022/03/27 01:11:55;;;;;;;18.70;10.50;;;;;;;4.94;100.00;103416.50;5005773;28;20030;-73
2022/03/27 01:14:32;;;;;;;20.77;11.98;;;;;;;4.95;100.00;103413.00;4993589;28;20307;-73
2022/03/27 01:17:08;;;;;;;22.30;12.15;;;;;;;4.95;100.00;103410.38;5005416;28;20085;-73
2022/03/27 01:19:34;;;;;;;19.60;12.40;;;;;;;4.97;100.00;103415.66;5005427;28;20025;-73
2022/03/27 01:22:00;;;;;;;22.50;12.32;;;;;;;4.99;100.00;103409.59;4988176;28;20105;-73
2022/03/27 01:24:26;;;;;;;25.02;13.85;;;;;;;5.02;100.00;103407.00;4988430;28;20111;-73
2022/03/27 01:26:51;;;;;;;25.35;13.25;;;;;;;5.00;100.00;103406.13;4975011;28;20479;-72
2022/03/27 01:29:17;;;;;;;23.75;13.20;;;;;;;5.02;100.00;103411.41;5004156;28;20577;-73
2022/03/27 01:31:43;;;;;;;27.27;14.77;;;;;;;5.01;100.00;103414.88;4987145;28;21444;-73
2022/03/27 01:34:08;;;;;;;23.52;13.20;;;;;;;5.01;100.00;103412.25;5004716;28;20566;-73
2022/03/27 01:36:35;;;;;;;25.20;13.65;;;;;;;5.00;100.00;103410.47;4987388;28;20033;-73
2022/03/27 01:39:06;;;;;;;23.02;11.65;;;;;;;4.99;100.00;103413.94;5006099;28;20392;-73
2022/03/27 01:41:32;;;;;;;21.55;10.63;;;;;;;4.94;100.00;103406.00;5005632;28;20045;-73
2022/03/27 01:43:59;;;;;;;18.63;10.93;;;;;;;4.93;100.00;103398.97;4988930;28;20151;-73
2022/03/27 01:46:26;;;;;;;19.85;11.35;;;;;;;4.94;100.00;103394.59;4988480;28;20042;-73
2022/03/27 01:48:51;;;;;;;22.85;11.23;;;;;;;4.95;100.00;103406.88;5006187;28;20034;-73
2022/03/27 01:51:17;;;;;;;22.30;11.52;;;;;;;4.94;100.00;103411.25;5005238;28;20030;-73
2022/03/27 01:53:42;;;;;;;24.42;11.02;;;;;;;4.94;100.00;103407.72;5005183;28;20163;-73
2022/03/27 01:56:08;;;;;;;23.38;10.95;;;;;;;4.94;100.00;103395.50;5006139;28;20060;-72
2022/03/27 01:58:38;;;;;;;21.13;10.85;;;;;;;4.95;100.00;103413.00;5005645;28;20774;-72
2022/03/27 02:01:06;;;;;;;20.95;11.25;;;;;;;4.95;100.00;103406.88;5005760;28;20069;-73
2022/03/27 02:03:31;;;;;;;21.05;9.55;;;;;;;4.99;100.00;103408.69;5004568;28;20491;-73
2022/03/27 02:05:57;;;;;;;27.75;9.55;;;;;;;4.98;100.00;103402.59;5005838;28;20033;-73
2022/03/27 02:08:23;;;;;;;27.60;9.13;;;;;;;5.00;100.00;103395.59;4986619;28;20041;-73
2022/03/27 02:10:49;;;;;;;22.13;8.93;;;;;;;5.00;100.00;103400.84;4987712;28;20038;-73
2022/03/27 02:13:18;;;;;;;27.85;9.65;;;;;;;5.03;100.00;103392.16;5001667;28;20623;-73
2022/03/27 02:15:47;;;;;;;28.88;10.10;;;;;;;5.05;100.00;103393.06;5005388;28;20072;-73
2022/03/27 02:18:14;;;;;;;27.23;9.32;;;;;;;5.03;100.00;103403.53;5006095;28;20036;-73
2022/03/27 02:20:40;;;;;;;25.70;10.35;;;;;;;5.05;100.00;103394.81;5006436;28;20063;-73
2022/03/27 02:23:08;;;;;;;26.10;10.20;;;;;;;5.06;100.00;103389.56;5002804;28;20068;-73
2022/03/27 02:25:34;;;;;;;31.27;11.10;;;;;;;5.08;100.00;103389.63;5004137;28;20447;-73
2022/03/27 02:28:00;;;;;;;29.23;11.38;;;;;;;5.10;100.00;103391.41;5006307;28;20037;-72
2022/03/27 02:30:26;;;;;;;27.77;11.20;;;;;;;5.10;100.00;103387.88;5007502;28;20014;-73
2022/03/27 02:32:51;;;;;;;27.45;10.88;;;;;;;5.11;100.00;103392.28;5007144;28;20257;-73
2022/03/27 02:35:17;;;;;;;30.10;10.27;;;;;;;5.10;100.00;103385.25;5008417;28;20042;-73
2022/03/27 02:37:42;;;;;;;26.77;10.40;;;;;;;5.10;100.00;103375.66;5006591;28;20753;-73
2022/03/27 02:40:10;;;;;;;30.77;11.25;;;;;;;5.09;100.00;103375.63;5003980;28;20057;-73
2022/03/27 02:42:36;;;;;;;33.35;12.10;;;;;;;5.10;100.00;103386.16;5005528;28;20057;-73
2022/03/27 02:45:02;;;;;;;27.98;10.68;;;;;;;5.11;100.00;103387.03;5006022;28;20124;-74
2022/03/27 02:47:27;;;;;;;28.63;11.18;;;;;;;5.12;100.00;103378.31;4989836;28;20123;-73
2022/03/27 02:49:53;;;;;;;27.77;10.23;;;;;;;5.13;100.00;103382.72;5006076;28;20040;-73
2022/03/27 02:52:18;;;;;;;26.40;11.15;;;;;;;5.12;100.00;103386.19;5006708;28;20072;-73
2022/03/27 02:54:44;;;;;;;25.02;11.23;;;;;;;5.13;100.00;103378.31;5008044;28;20079;-73
2022/03/27 02:57:10;;;;;;;24.42;11.52;;;;;;;5.13;100.00;103374.84;5007458;28;20107;-73
2022/03/27 02:59:36;;;;;;;29.88;10.57;;;;;;;5.13;100.00;103374.84;5006152;28;20048;-73
2022/03/27 03:02:03;;;;;;;25.40;10.80;;;;;;;5.14;100.00;103376.59;5008229;28;20043;-73
2022/03/27 03:04:30;;;;;;;23.05;10.82;;;;;;;5.14;100.00;103373.97;5007908;28;20030;-73
2022/03/27 03:06:56;;;;;;;25.13;10.07;;;;;;;5.15;100.00;103367.84;5008417;28;20029;-73
2022/03/27 03:09:21;;;;;;;30.63;8.68;;;;;;;5.15;100.00;103373.09;5007248;28;20136;-73
2022/03/27 03:11:47;;;;;;;22.73;9.10;;;;;;;5.14;100.00;103371.34;5007785;28;20055;-73
2022/03/27 03:14:13;;;;;;;24.65;9.43;;;;;;;5.11;100.00;103369.53;5007031;28;20038;-73
2022/03/27 03:16:39;;;;;;;23.90;9.52;;;;;;;5.11;100.00;103368.66;5006892;28;20029;-73
2022/03/27 03:19:05;;;;;;;24.88;9.80;;;;;;;5.10;100.00;103364.25;4972220;28;20030;-73
2022/03/27 03:21:30;;;;;;;23.98;9.73;;;;;;;5.07;100.00;103367.72;5008274;28;20799;-73
2022/03/27 03:23:56;;;;;;;29.48;12.38;;;;;;;5.05;100.00;103364.19;5005402;28;20136;-73
2022/03/27 03:26:22;;;;;;;22.08;9.90;;;;;;;5.01;100.00;103359.75;5006945;28;20038;-73
2022/03/27 03:28:48;;;;;;;35.28;11.63;;;;;;;4.97;100.00;103357.91;5006691;28;20392;-73
2022/03/27 03:31:14;;;;;;;30.23;10.23;;;;;;;4.93;100.00;103356.06;5007641;28;20033;-73
2022/03/27 03:33:40;;;;;;;21.77;9.77;;;;;;;4.89;100.00;103355.13;4987781;28;20064;-73
2022/03/27 03:36:07;;;;;;;33.65;11.00;;;;;;;4.85;100.00;103354.19;5006201;28;20116;-73
2022/03/27 03:38:33;;;;;;;23.25;10.60;;;;;;;4.82;100.00;103356.78;4988272;28;20033;-73
2022/03/27 03:40:59;;;;;;;23.58;9.70;;;;;;;4.76;100.00;103344.38;4990373;28;20088;-73
2022/03/27 03:43:25;;;;;;;24.25;9.20;;;;;;;4.72;100.00;103347.84;5006099;28;20030;-73
2022/03/27 03:45:51;;;;;;;26.20;10.30;;;;;;;4.68;100.00;103350.38;5003866;28;20037;-73
2022/03/27 03:48:17;;;;;;;23.00;9.35;;;;;;;4.63;100.00;103345.00;4989224;28;20033;-73
2022/03/27 03:50:42;;;;;;;23.85;8.98;;;;;;;4.59;100.00;103348.44;5002724;28;20427;-73
2022/03/27 03:53:08;;;;;;;24.42;10.25;;;;;;;4.55;100.00;103347.50;5006016;28;20033;-73
2022/03/27 03:55:34;;;;;;;21.95;9.57;;;;;;;4.52;100.00;103347.41;5005291;28;20038;-73
2022/03/27 03:58:01;;;;;;;31.55;9.68;;;;;;;4.47;100.00;103343.84;4986970;28;20029;-73
2022/03/27 04:00:27;;;;;;;28.63;11.23;;;;;;;4.40;100.00;103340.19;5005485;28;21378;-74
2022/03/27 04:02:52;;;;;;;40.25;15.38;;;;;;;4.38;100.00;103336.66;5003986;28;20029;-73
2022/03/27 04:05:18;;;;;;;32.70;10.50;;;;;;;4.35;100.00;103337.47;5004718;28;20048;-73
2022/03/27 04:07:43;;;;;;;30.50;11.13;;;;;;;4.35;100.00;103337.47;5006517;28;20036;-74
2022/03/27 04:10:09;;;;;;;27.70;10.40;;;;;;;4.31;100.00;103334.78;5005921;28;20037;-73
2022/03/27 04:12:35;;;;;;;28.05;10.38;;;;;;;4.28;100.00;103334.69;5005701;28;20432;-74
2022/03/27 04:15:00;;;;;;;27.65;10.35;;;;;;;4.25;100.00;103330.25;4993103;28;20353;-74
2022/03/27 04:17:26;;;;;;;38.83;10.82;;;;;;;4.23;100.00;103328.50;5005418;28;20041;-73
2022/03/27 04:19:52;;;;;;;32.90;10.65;;;;;;;4.21;100.00;103324.06;5005631;28;20029;-74
2022/03/27 04:22:20;;;;;;;31.33;11.27;;;;;;;4.19;100.00;103331.03;5004879;28;20038;-73
2022/03/27 04:24:45;;;;;;;27.65;10.90;;;;;;;4.17;100.00;103332.75;5006091;28;20070;-73
2022/03/27 04:27:11;;;;;;;29.85;10.40;;;;;;;4.16;100.00;103332.69;4987532;28;20026;-74
2022/03/27 04:29:37;;;;;;;31.70;10.63;;;;;;;4.12;100.00;103333.47;5006425;28;20709;-73
2022/03/27 04:32:03;;;;;;;35.65;11.73;;;;;;;4.10;100.00;103329.94;4986906;28;20044;-74
2022/03/27 04:34:28;;;;;;;27.20;10.82;;;;;;;4.05;100.00;103324.59;4987366;28;21769;-74
2022/03/27 04:36:54;;;;;;;25.58;9.25;;;;;;;4.02;100.00;103327.13;5005795;28;20099;-74
2022/03/27 04:39:20;;;;;;;31.67;10.82;;;;;;;3.99;100.00;103320.13;4990370;28;20060;-73
2022/03/27 04:41:46;;;;;;;26.38;9.35;;;;;;;3.98;100.00;103330.56;4985434;28;20022;-73
2022/03/27 04:44:12;;;;;;;24.10;9.60;;;;;;;3.94;100.00;103316.50;5006062;28;20033;-73
2022/03/27 04:46:38;;;;;;;24.25;10.85;;;;;;;3.93;100.00;103331.34;4973171;28;20496;-73
2022/03/27 04:49:03;;;;;;;25.75;10.77;;;;;;;3.90;100.00;103326.03;4955512;28;20040;-73
2022/03/27 04:51:29;;;;;;;28.17;9.98;;;;;;;3.87;100.00;103327.72;4975834;28;21578;-73
2022/03/27 04:53:55;;;;;;;26.65;10.32;;;;;;;3.83;100.00;103331.09;4993117;28;21453;-73
2022/03/27 04:56:20;;;;;;;24.15;9.65;;;;;;;3.80;100.00;103326.66;5006417;28;20033;-73
2022/03/27 04:58:46;;;;;;;29.35;10.82;;;;;;;3.76;100.00;103328.34;4987503;28;20100;-73
2022/03/27 05:01:12;;;;;;;26.95;10.77;;;;;;;3.71;100.00;103329.94;5005645;28;20038;-74
2022/03/27 05:03:37;;;;;;;25.85;10.07;;;;;;;3.67;100.00;103329.00;5004551;28;20739;-73
2022/03/27 05:06:03;;;;;;;24.30;10.20;;;;;;;3.62;100.00;103333.28;5005501;28;20033;-73
2022/03/27 05:08:28;;;;;;;20.45;9.40;;;;;;;3.61;100.00;103341.09;5005160;28;20444;-73
2022/03/27 05:10:54;;;;;;;22.10;10.23;;;;;;;3.57;100.00;103334.88;5004928;28;20034;-73
2022/03/27 05:13:20;;;;;;;26.60;9.77;;;;;;;3.56;100.00;103338.38;5005739;28;20095;-73
2022/03/27 05:15:46;;;;;;;23.70;9.57;;;;;;;3.55;100.00;103340.94;4988002;28;20030;-73
2022/03/27 05:18:12;;;;;;;18.02;9.20;;;;;;;3.51;100.00;103345.22;5005239;28;20026;-73
2022/03/27 05:20:41;;;;;;;25.88;9.35;;;;;;;3.49;100.00;103346.91;5005471;28;20087;-72
2022/03/27 05:23:07;;;;;;;20.40;9.13;;;;;;;3.47;100.00;103345.97;4969867;28;20026;-73
2022/03/27 05:25:40;;;;;;;21.00;8.25;;;;;;;3.45;100.00;103343.34;5003666;28;20056;-73
2022/03/27 05:28:07;;;;;;;20.92;7.93;;;;;;;3.42;100.00;103351.09;4989437;28;20029;-73
2022/03/27 05:30:32;;;;;;;23.65;8.82;;;;;;;3.40;100.00;103347.56;5005115;28;20034;-72
2022/03/27 05:32:58;;;;;;;24.67;9.05;;;;;;;3.41;100.00;103344.09;5004916;28;20121;-73
2022/03/27 05:35:24;;;;;;;24.17;8.52;;;;;;;3.38;100.00;103336.19;5003499;28;20060;-72
2022/03/27 05:37:51;;;;;;;23.42;7.97;;;;;;;3.37;100.00;103342.25;5002723;28;20069;-73
2022/03/27 05:40:18;;;;;;;25.98;7.90;;;;;;;3.37;100.00;103343.13;5004370;28;20117;-73
2022/03/27 05:42:45;;;;;;;29.25;8.43;;;;;;;3.38;100.00;103338.81;4986213;28;20030;-73
2022/03/27 05:45:10;;;;;;;25.45;8.07;;;;;;;3.39;100.00;103344.06;5004533;28;20033;-73
2022/03/27 05:47:41;;;;;;;26.17;7.70;;;;;;;3.40;100.00;103343.19;4987550;28;20125;-73
2022/03/27 05:50:08;;;;;;;33.33;8.32;;;;;;;3.40;100.00;103337.97;4986717;28;20127;-73
2022/03/27 05:52:34;;;;;;;37.95;9.55;;;;;;;3.45;100.00;103343.34;4988425;28;20488;-73
2022/03/27 05:55:00;;;;;;;31.95;9.45;;;;;;;3.48;100.00;103343.41;4991585;28;20393;-73
2022/03/27 05:57:25;;;;;;;32.97;9.35;;;;;;;3.51;100.00;103345.22;4988938;28;20033;-73
2022/03/27 05:59:51;;;;;;;31.70;8.73;;;;;;;3.51;100.00;103342.59;4988469;28;20022;-73
2022/03/27 06:02:16;;;;;;;26.95;9.23;;;;;;;3.55;100.00;103344.44;4989420;28;20067;-73
2022/03/27 06:04:42;;;;;;;26.65;8.25;;;;;;;3.58;100.00;103341.91;4993330;28;20119;-73
2022/03/27 06:07:08;;;;;;;27.80;8.95;;;;;;;3.61;100.00;103347.22;5005211;28;20025;-73
2022/03/27 06:09:34;;;;;;;30.15;9.30;;;;;;;3.65;100.00;103343.81;5006777;28;21533;-73
2022/03/27 06:12:00;;;;;;;32.83;9.48;;;;;;;3.71;100.00;103336.94;4991244;28;20061;-73
2022/03/27 06:14:27;;;;;;;27.90;8.15;;;;;;;3.75;100.00;103341.38;5008980;28;20034;-73
2022/03/27 06:16:52;;;;;;;35.00;9.80;;;;;;;3.78;100.00;103338.84;5009558;28;20128;-73
2022/03/27 06:19:18;;;;;;;38.45;9.60;;;;;;;3.79;100.00;103343.25;4993458;28;20042;-73
2022/03/27 06:21:45;;;;;;;38.22;9.40;;;;;;;3.83;100.00;103345.09;5009293;28;20063;-73
2022/03/27 06:24:11;;;;;;;38.00;9.43;;;;;;;3.89;100.00;103350.47;5008145;28;20761;-73
2022/03/27 06:26:36;;;;;;;36.45;10.10;;;;;;;3.92;100.00;103347.91;5008333;28;20527;-73
2022/03/27 06:29:03;;;;;;;44.28;10.05;;;;;;;3.99;100.00;103353.31;5005858;28;20030;-73
2022/03/27 06:31:28;;;;;;;43.70;9.52;;;;;;;4.04;100.00;103356.91;4974141;28;20021;-73
2022/03/27 06:33:54;;;;;;;42.53;9.57;;;;;;;4.08;100.00;103362.25;5008534;28;20036;-73
2022/03/27 06:36:19;;;;;;;37.95;8.70;;;;;;;4.14;100.00;103358.88;4990204;28;20716;-73
2022/03/27 06:38:45;;;;;;;42.47;9.23;;;;;;;4.21;100.00;103370.41;5009756;28;20071;-73
2022/03/27 06:41:10;;;;;;;40.95;8.98;;;;;;;4.29;100.00;103371.44;4992705;28;20033;-73
2022/03/27 06:43:37;;;;;;;46.63;9.55;;;;;;;4.37;100.00;103371.63;4991964;28;20843;-73
2022/03/27 06:46:03;;;;;;;40.58;8.68;;;;;;;4.43;100.00;103370.84;4990631;28;20128;-73
2022/03/27 06:48:28;;;;;;;39.42;8.57;;;;;;;4.50;100.00;103372.75;5008711;28;20055;-73
2022/03/27 06:50:54;;;;;;;41.58;8.82;;;;;;;4.55;100.00;103367.59;5010131;28;20734;-73
2022/03/27 06:53:24;;;;;;;48.97;10.10;;;;;;;4.60;100.00;103379.06;4975708;28;20383;-73
2022/03/27 06:55:49;;;;;;;48.08;9.38;;;;;;;4.66;100.00;103368.69;4990404;28;20512;-73
2022/03/27 06:58:15;;;;;;;44.95;9.30;;;;;;;4.72;100.00;103375.81;4990506;28;20030;-73
2022/03/27 07:03:25;;;;;;;38.80;7.93;;;;;;;4.84;100.00;103369.91;5008341;28;20030;-73
2022/03/27 07:05:50;;;;;;;41.47;7.78;;;;;;;4.88;100.00;103369.13;5009215;28;20393;-73
2022/03/27 07:08:17;;;;;;;38.15;8.10;;;;;;;4.95;100.00;103371.00;4990630;28;20045;-74
2022/03/27 07:10:44;;;;;;;49.33;8.35;;;;;;;5.02;100.00;103369.38;4990197;28;20084;-73
2022/03/27 07:13:11;;;;;;;46.55;8.48;;;;;;;5.09;100.00;103365.13;4986950;28;20096;-73
2022/03/27 07:15:38;;;;;;;38.50;8.35;;;;;;;5.16;100.00;103370.53;5004001;28;20044;-73
2022/03/27 07:18:05;;;;;;;48.88;7.68;;;;;;;5.23;100.00;103373.25;4988508;28;20121;-73
2022/03/27 07:20:33;;;;;;;47.28;7.90;;;;;;;5.28;100.00;103369.84;5003392;28;20457;-73
2022/03/27 07:23:01;;;;;;;43.83;8.05;;;;;;;5.37;100.00;103373.47;5002642;28;20056;-73
2022/03/27 07:25:28;;;;;;;55.30;8.93;;;;;;;5.44;100.00;103371.00;4989225;28;20038;-73
2022/03/27 07:27:56;;;;;;;49.95;9.30;;;;;;;5.54;100.00;103374.66;4988190;28;20046;-74
2022/03/27 07:30:22;;;;;;;42.88;7.75;;;;;;;5.63;100.00;103381.81;4987075;28;20061;-73
2022/03/27 07:32:48;;;;;;;53.30;7.97;;;;;;;5.69;100.00;103375.75;5004468;28;21347;-74
2022/03/27 07:35:14;;;;;;;49.75;7.97;;;;;;;5.77;100.00;103376.75;5004091;28;20065;-73
2022/03/27 07:37:41;;;;;;;54.08;9.50;;;;;;;5.82;100.00;103377.72;4987024;28;20065;-73
2022/03/27 07:40:08;;;;;;;53.33;9.52;;;;;;;5.92;100.00;103372.59;4992055;28;20041;-73
2022/03/27 07:42:38;;;;;;;51.30;8.95;;;;;;;6.01;100.00;103364.84;4988811;28;20116;-73
2022/03/27 07:45:04;;;;;;;50.72;7.97;;;;;;;6.12;100.00;103365.03;4988085;28;20046;-73
2022/03/27 07:47:30;;;;;;;50.42;8.43;;;;;;;6.17;100.00;103367.72;5003791;28;20061;-72
2022/03/27 07:49:57;;;;;;;45.72;7.38;;;;;;;6.20;100.00;103373.00;4986845;28;20094;-73
2022/03/27 07:52:23;;;;;;;47.05;7.75;;;;;;;6.22;100.00;103364.28;4985732;28;20038;-73
2022/03/27 07:54:49;;;;;;;42.67;7.68;;;;;;;6.27;100.00;103363.47;4986069;28;21434;-72
2022/03/27 07:57:15;;;;;;;49.50;7.43;;;;;;;6.32;100.00;103367.03;5002373;28;20068;-73
2022/03/27 07:59:40;;;;;;;40.38;7.97;;;;;;;6.38;100.00;103365.34;5001490;28;20393;-73
2022/03/27 08:02:06;;;;;;;48.53;7.10;;;;;;;6.43;100.00;103369.81;4986499;28;20114;-73
2022/03/27 08:04:31;;;;;;;48.55;8.60;;;;;;;6.48;100.00;103362.84;4988113;28;20041;-73
2022/03/27 08:06:57;;;;;;;47.45;7.18;;;;;;;6.51;100.00;103362.88;4986340;28;20432;-73
2022/03/27 08:09:22;;;;;;;39.15;7.40;;;;;;;6.57;100.00;103369.97;4970510;28;20248;-73
2022/03/27 08:11:48;;;;;;;42.95;7.88;;;;;;;6.63;100.00;103368.28;4989202;28;20050;-73
2022/03/27 08:14:13;;;;;;;50.17;7.20;;;;;;;6.68;100.00;103365.72;5007574;28;20120;-72
2022/03/27 08:16:39;;;;;;;48.90;8.20;;;;;;;6.72;100.00;103361.38;5008726;28;20515;-73
2022/03/27 08:19:04;;;;;;;39.25;7.57;;;;;;;6.75;100.00;103358.78;5008039;28;20038;-73
2022/03/27 08:21:30;;;;;;;37.85;6.80;;;;;;;6.80;100.00;103357.06;5008531;28;20057;-73
2022/03/27 08:23:58;;;;;;;59.28;9.13;;;;;;;6.86;100.00;103354.50;5006403;28;20061;-73
2022/03/27 08:29:08;;;;;;;38.63;6.82;;;;;;;6.98;100.00;103350.22;5005418;28;20674;-73
2022/03/27 08:31:34;;;;;;;39.50;7.07;;;;;;;7.04;100.00;103348.53;5007640;28;20025;-73
2022/03/27 08:34:00;;;;;;;42.78;8.38;;;;;;;7.07;100.00;103355.56;5005944;28;20037;-73
2022/03/27 08:36:28;;;;;;;42.17;7.57;;;;;;;7.11;100.00;103357.38;5007185;28;20041;-73
2022/03/27 08:38:54;;;;;;;49.05;8.18;;;;;;;7.16;100.00;103347.78;5007184;28;20033;-73
2022/03/27 08:41:24;;;;;;;37.85;6.97;;;;;;;7.23;100.00;103356.59;4990032;28;20315;-73
2022/03/27 08:43:58;;;;;;;43.33;7.40;;;;;;;7.32;100.00;103361.06;4989937;28;20057;-73
2022/03/27 08:46:26;;;;;;;47.80;8.70;;;;;;;7.40;100.00;103367.28;5004715;28;20037;-73
2022/03/27 08:48:54;;;;;;;47.80;8.40;;;;;;;7.45;100.00;103365.56;4987830;28;20044;-73
2022/03/27 08:51:29;;;;;;;40.08;7.55;;;;;;;7.50;100.00;103372.63;5006098;28;20187;-73
2022/03/27 08:54:06;;;;;;;43.63;8.52;;;;;;;7.54;100.00;103374.44;5007106;28;20063;-72
2022/03/27 08:56:33;;;;;;;43.20;7.25;;;;;;;7.58;100.00;103360.41;5006391;28;20156;-73
2022/03/27 08:59:07;;;;;;;49.78;8.30;;;;;;;7.66;100.00;103363.97;4987584;28;20041;-73
2022/03/27 09:01:39;;;;;;;41.00;7.78;;;;;;;7.73;100.00;103364.88;5008060;28;20034;-73
2022/03/27 09:04:05;;;;;;;44.87;8.40;;;;;;;7.79;100.00;103364.06;4988267;28;20099;-73
2022/03/27 09:06:31;;;;;;;45.20;7.78;;;;;;;7.87;100.00;103365.00;4987506;28;20026;-74
2022/03/27 09:08:56;;;;;;;35.53;6.93;;;;;;;7.92;100.00;103365.91;5004234;28;20212;-73
2022/03/27 09:11:25;;;;;;;43.38;7.80;;;;;;;7.94;100.00;103357.97;4986066;28;20036;-72
2022/03/27 09:13:52;;;;;;;39.50;6.68;;;;;;;7.95;100.00;103359.78;5004655;28;20103;-73
2022/03/27 09:16:19;;;;;;;44.15;7.28;;;;;;;7.99;100.00;103359.78;5002648;28;20034;-73
2022/03/27 09:18:51;;;;;;;51.08;7.93;;;;;;;8.05;100.00;103356.31;4990937;28;20037;-73
2022/03/27 09:21:19;;;;;;;42.45;7.18;;;;;;;8.10;100.00;103356.31;4986881;28;20060;-73
2022/03/27 09:23:45;;;;;;;38.10;6.97;;;;;;;8.11;100.00;103350.16;4971777;28;22157;-73
2022/03/27 09:26:16;;;;;;;40.97;6.22;;;;;;;8.12;100.00;103350.19;5003078;28;20041;-73
2022/03/27 09:28:47;;;;;;;44.10;7.35;;;;;;;8.18;100.00;103353.72;4975957;28;20030;-73
2022/03/27 09:31:19;;;;;;;40.30;7.15;;;;;;;8.22;99.23;103359.03;5004925;28;20110;-73
2022/03/27 09:33:50;;;;;;;30.02;6.03;;;;;;;8.23;97.27;103360.78;5006487;28;20046;-73
2022/03/27 09:36:24;;;;;;;34.70;6.05;;;;;;;8.28;96.67;103358.16;4987624;28;20029;-73
2022/03/27 09:38:57;;;;;;;38.72;5.82;;;;;;;8.34;96.81;103346.75;4992895;28;20041;-74
2022/03/27 09:41:32;;;;;;;30.92;6.00;;;;;;;8.40;96.16;103346.78;5010434;28;20105;-74
2022/03/27 09:44:02;;;;;;;31.02;6.00;;;;;;;8.47;95.70;103345.03;5011056;28;20060;-74
2022/03/27 09:46:51;;;;;;;34.05;5.72;;;;;;;8.49;94.36;103336.25;5009584;28;20037;-74
2022/03/27 09:49:26;;;;;;;25.45;5.25;;;;;;;8.56;94.84;103343.34;5008983;28;20566;-73
2022/03/27 09:51:58;;;;;;;31.73;5.95;;;;;;;8.60;93.80;103349.53;4979949;28;20029;-74
2022/03/27 09:54:25;;;;;;;29.85;5.10;;;;;;;8.65;92.70;103344.25;4992495;28;20052;-74
2022/03/27 09:56:51;;;;;;;34.50;5.95;;;;;;;8.68;92.50;103344.28;4993399;28;20036;-74
2022/03/27 09:59:32;;;;;;;30.73;6.10;;;;;;;8.74;91.81;103340.75;5007053;28;20040;-74
2022/03/27 10:02:38;;;;;;;28.85;5.10;;;;;;;8.79;87.46;103334.63;5008716;28;20039;-73
2022/03/27 10:05:07;;;;;;;27.23;4.97;;;;;;;8.85;89.42;103330.19;4992451;28;20504;-74
2022/03/27 10:07:35;;;;;;;25.63;4.65;;;;;;;8.90;87.94;103325.81;5007536;28;20102;-74
2022/03/27 10:10:01;;;;;;;25.45;4.60;;;;;;;8.93;84.50;103323.19;4976535;28;20108;-74
2022/03/27 10:12:29;;;;;;;19.80;4.13;;;;;;;8.97;86.12;103322.28;4992735;28;20497;-74
2022/03/27 10:15:00;;;;;;;21.27;4.60;;;;;;;8.99;84.21;103320.53;5006866;28;20100;-74
2022/03/27 10:17:27;;;;;;;20.40;4.47;;;;;;;8.98;81.56;103317.91;4992845;28;20110;-74
2022/03/27 10:19:57;;;;;;;18.85;4.25;;;;;;;9.00;81.33;103322.31;4978645;28;20029;-74
2022/03/27 10:22:25;;;;;;;22.75;5.03;;;;;;;9.08;82.78;103314.38;5006113;28;20041;-74
2022/03/27 10:24:55;;;;;;;15.80;2.97;;;;;;;9.14;78.58;103309.09;4996160;28;20038;-74
2022/03/27 10:27:21;;;;;;;14.07;3.17;;;;;;;9.10;79.27;103308.22;5010527;28;20029;-74
2022/03/27 10:29:47;;;;;;;13.90;3.30;;;;;;;9.14;79.07;103308.22;4997828;28;20099;-73
2022/03/27 10:32:13;;;;;;;17.77;3.92;;;;;;;9.13;78.49;103303.81;4990443;28;20037;-74
2022/03/27 10:34:51;;;;;;;17.73;3.80;;;;;;;9.13;77.09;103296.75;4991476;28;20494;-73
2022/03/27 10:37:32;;;;;;;17.42;3.95;;;;;;;9.20;77.41;103293.25;4991840;28;20037;-73
2022/03/27 10:40:05;;;;;;;22.02;5.13;;;;;;;9.29;77.34;103292.34;4990990;28;20408;-73
2022/03/27 10:42:46;;;;;;;17.40;3.70;;;;;;;9.31;72.75;103285.28;5007198;28;20060;-73
2022/03/27 10:45:20;;;;;;;15.23;3.75;;;;;;;9.34;73.99;103287.94;4989878;28;20088;-73
2022/03/27 10:48:16;;;;;;;12.57;3.60;;;;;;;9.43;69.47;103289.69;4977335;28;20054;-74
2022/03/27 10:50:52;;;;;;;10.63;2.70;;;;;;;9.46;67.21;103288.78;4986967;28;20030;-74
2022/03/27 10:53:23;;;;;;;10.65;2.75;;;;;;;9.53;65.33;103289.69;5005068;28;20263;-74
2022/03/27 10:55:51;;;;;;;12.25;3.22;;;;;;;9.53;67.93;103285.25;5007810;28;20332;-74
2022/03/27 10:58:40;;;;;;;9.63;3.17;;;;;;;9.54;66.85;103284.41;5007300;28;20033;-74
2022/03/27 11:01:28;;;;;;;8.93;2.88;;;;;;;9.60;66.89;103283.50;5008639;28;20405;-74
2022/03/27 11:04:04;;;;;;;10.48;3.10;;;;;;;9.64;65.87;103272.91;5008304;28;20473;-74
2022/03/27 11:06:32;;;;;;;9.77;2.95;;;;;;;9.71;66.84;103275.53;5008655;28;20038;-74
2022/03/27 11:08:59;;;;;;;10.00;3.30;;;;;;;9.71;65.95;103284.34;4989481;28;20477;-74
2022/03/27 11:11:37;;;;;;;13.27;3.10;;;;;;;9.71;61.50;103279.06;5008828;28;20037;-74
2022/03/27 11:14:07;;;;;;;11.93;2.75;;;;;;;9.75;66.01;103266.72;5008157;28;20546;-74
2022/03/27 11:16:37;;;;;;;11.10;2.70;;;;;;;9.81;67.39;103276.38;5006297;28;20034;-74
2022/03/27 11:19:04;;;;;;;9.13;3.10;;;;;;;9.84;67.50;103271.97;4990562;28;20128;-74
2022/03/27 11:21:29;;;;;;;11.90;3.40;;;;;;;9.90;67.01;103268.41;5007254;28;20049;-74
2022/03/27 11:24:03;;;;;;;13.18;3.17;;;;;;;9.96;65.02;103268.38;5008306;28;20137;-74
2022/03/27 11:26:32;;;;;;;10.85;3.20;;;;;;;10.03;66.74;103269.25;5008748;28;20076;-74